Current Conditions
Partly Cloudy
Conditions



Pressure
29.87 (inHG) - 1011.51 (mb)
Visibility

5.0 (miles) - 8.0 (km)
Temperature
64  °F
Temperature
28  °F
Dewpoint
26  %
 Humidity
Wind Speed
28  mph
24  kts
45  km/h
12.5  m/s
Wind Direction
N
45°
E
90°
135°
S
180°
225°
W
270°
315°
 260°

Due West
Airport Data
KABQ
Albuquerque International Sunport
Metar :KABQ 262352Z 26024G39KT 5SM VCBLDU FEW080 SCT150 BKN250 18/M02 A2987 RMK AO2 PK WND 26044/2308 SLP060 T01831017 10206 20183 56012 $
Mon 26th February 16:52 pm
Raw Metar Info
Raw METAR is the most common format in the world for the transmission of observational weather data. It is highly standardized through the International Civil Aviation Organization (ICAO), which allows it to be understood throughout most of the world.
API Info
Data Provided by
https://www.checkwx.com/weather/KABQ

Aviation Weather providing METAR, TAF, AIRMET, SIGMET and OUTLOOK Weather Reports
© Info
CSS/SVG/PHP scripts were developed by weather34 for use in the weather34 template © 2015-2024

Guide Info provided by Metar-Wikipedia